KCQW

Details ICAO KCQW
Name CHERAW MUNI LYNCH BELLINGER FLD
Region United States
Timezone America/New_York (UTC-5.0)
Plans Departing 0
Arriving 0
Stats Elevation 239 ft / 73 m (AMSL)
Location 34.712875° -79.957004°
Runways 1
Magnetic Variation 8.244° W
Sunrise 2017-12-14 12:20:37 UTC / 2017-12-14 07:20:37 Local
Sunset 2017-12-14 22:11:25 UTC / 2017-12-14 17:11:25 Local
Advertisement - Login to hide

Runways

ID Width Length Bearing (true) Bearing (mag) Surface Threshold Offset Overrun Length
08 75 ft / 23 m 4,994 ft / 1,522 m 69.98° 78.22° Asphalt 0 ft / 0 m 0 ft / 0 m
26 75 ft / 23 m 4,994 ft / 1,522 m 249.99° 258.23° Asphalt 0 ft / 0 m 0 ft / 0 m

Map

Weather


0- 5 10 15 20 25 30 35+ Temperature / ° C

Clouds and Precipitation
Forecast for 2017-12-14 18:00 UTC. Updated 15 minutes ago

Ground ~20,000 ft ~40,000 ft Winds

METAR

KCQW 141535Z AUTO 26006KT 10SM CLR 09/M03 A2989 RMK AO2

TAF

Not found

Frequencies

Recorded 118.17 MHz AWOS 3
Approach 118.60 MHz FLORENCE APP/DEP
Unicom 122.80 MHz CTAF/UNICOM
Warning: Do not use this data for real-world aviation or navigation. No guarantee of current accuracy is given.